Time;durP1;ratioP1;P1;durP2;ratioP2;P2;SDS_P1;SDS_P2;PMS_P1;PMS_P2;Temp;Humidity;BMP_temperature;BMP_pressure;BME280_temperature;BME280_humidity;BME280_pressure;Samples;Min_cycle;Max_cycle;Signal;HPM_P1;HPM_P2
2023/02/28 00:00:45;;;;;;;10.90;4.60;;;;;;;2.32;100.00;102191.91;5005397;28;20107;-74
2023/02/28 00:03:11;;;;;;;10.03;3.67;;;;;;;2.35;100.00;102198.81;5005235;28;20037;-75
2023/02/28 00:05:36;;;;;;;8.50;3.67;;;;;;;2.33;100.00;102230.50;5005281;28;20331;-75
2023/02/28 00:08:01;;;;;;;10.97;3.67;;;;;;;2.29;100.00;102242.97;4988039;28;20250;-75
2023/02/28 00:10:29;;;;;;;8.07;3.97;;;;;;;2.29;100.00;102255.28;5004976;28;20041;-75
2023/02/28 00:13:05;;;;;;;6.93;3.50;;;;;;;2.14;100.00;102211.22;5005219;28;20280;-75
2023/02/28 00:15:31;;;;;;;8.45;3.75;;;;;;;2.17;100.00;102211.06;4984075;28;20052;-72
2023/02/28 00:17:57;;;;;;;9.57;4.53;;;;;;;2.15;100.00;102186.56;5005334;28;20047;-75
2023/02/28 00:20:23;;;;;;;6.47;3.88;;;;;;;2.22;100.00;102172.16;5004987;28;20092;-72
2023/02/28 00:22:49;;;;;;;;;;;;;;;2.26;100.00;102145.59;5005635;28;20042;-74
2023/02/28 00:25:18;;;;;;;9.30;3.65;;;;;;;2.29;100.00;102137.56;5004066;28;20011;-75
2023/02/28 00:27:44;;;;;;;12.48;3.45;;;;;;;2.28;100.00;102112.13;4987548;28;20038;-75
2023/02/28 00:30:11;;;;;;;;;;;;;;;2.25;100.00;102095.63;5003714;28;20022;-75
2023/02/28 00:32:36;;;;;;;9.15;4.25;;;;;;;2.27;100.00;102080.56;4987578;28;19967;-74
2023/02/28 00:35:03;;;;;;;8.93;3.72;;;;;;;2.26;100.00;102078.88;4985125;28;20030;-74
2023/02/28 00:37:28;;;;;;;;;;;;;;;2.19;100.00;102053.75;4972035;28;20430;-74
2023/02/28 00:39:53;;;;;;;9.15;4.07;;;;;;;2.19;100.00;102069.56;5004736;28;20156;-74
2023/02/28 00:42:19;;;;;;;10.23;4.20;;;;;;;2.18;100.00;102059.94;4990837;28;20120;-74
2023/02/28 00:44:46;;;;;;;6.85;3.67;;;;;;;2.19;100.00;102077.47;5004577;28;20558;-73
2023/02/28 00:47:12;;;;;;;5.73;3.60;;;;;;;2.19;100.00;102107.28;4986974;28;20152;-74
2023/02/28 00:49:37;;;;;;;9.98;3.70;;;;;;;2.20;100.00;102147.66;4987254;28;20781;-72
2023/02/28 00:52:03;;;;;;;9.50;5.15;;;;;;;2.15;100.00;102120.69;4986801;28;20037;-72
2023/02/28 00:54:31;;;;;;;9.48;3.85;;;;;;;2.22;100.00;102095.75;4991414;28;20124;-73
2023/02/28 00:56:57;;;;;;;7.28;3.30;;;;;;;2.25;100.00;102066.63;4986896;28;20030;-72
2023/02/28 00:59:24;;;;;;;6.07;3.63;;;;;;;2.22;100.00;102072.03;4990631;28;20479;-72
2023/02/28 01:01:49;;;;;;;7.60;3.47;;;;;;;2.22;100.00;102082.56;5002823;28;20034;-74
2023/02/28 01:04:15;;;;;;;8.67;3.47;;;;;;;2.12;100.00;102058.47;4986931;28;20374;-72
2023/02/28 01:06:40;;;;;;;7.32;3.30;;;;;;;2.02;100.00;102031.72;5003330;28;20030;-72
2023/02/28 01:09:09;;;;;;;10.23;4.03;;;;;;;2.01;100.00;102045.81;4986213;28;20483;-72
2023/02/28 01:11:35;;;;;;;8.68;4.32;;;;;;;2.00;100.00;102040.63;4986662;28;20109;-73
2023/02/28 01:14:01;;;;;;;17.10;4.13;;;;;;;2.04;100.00;102066.75;5004714;28;20502;-72
2023/02/28 01:16:27;;;;;;;;;;;;;;;2.13;100.00;102077.75;4991495;28;20049;-73
2023/02/28 01:18:53;;;;;;;15.60;3.95;;;;;;;2.14;100.00;102074.22;4987004;28;19917;-75
2023/02/28 01:21:20;;;;;;;5.30;3.05;;;;;;;2.07;100.00;102069.22;5002926;28;20120;-73
2023/02/28 01:23:45;;;;;;;15.57;3.60;;;;;;;2.02;100.00;102071.25;5004444;28;20036;-72
2023/02/28 01:26:16;;;;;;;7.10;3.83;;;;;;;1.99;100.00;102057.34;4985770;28;20034;-73
2023/02/28 01:28:42;;;;;;;8.77;3.40;;;;;;;2.05;100.00;102049.16;4986682;28;20707;-74
2023/02/28 01:31:08;;;;;;;12.20;4.38;;;;;;;2.11;100.00;102052.34;4968962;28;20037;-75
2023/02/28 01:33:37;;;;;;;11.40;4.53;;;;;;;2.05;100.00;102044.75;4986401;28;20058;-74
2023/02/28 01:36:05;;;;;;;7.60;3.33;;;;;;;2.00;100.00;102020.41;5004103;28;20034;-75
2023/02/28 01:38:31;;;;;;;8.40;3.85;;;;;;;2.02;100.00;102022.97;5000750;28;20502;-75
2023/02/28 01:40:57;;;;;;;10.02;3.55;;;;;;;2.07;100.00;102042.88;4986192;28;20030;-73
2023/02/28 01:43:31;;;;;;;8.93;3.58;;;;;;;2.14;100.00;102047.88;4990380;28;20030;-74
2023/02/28 01:45:58;;;;;;;9.07;3.95;;;;;;;2.05;100.00;102030.72;4981093;28;20034;-73
2023/02/28 01:48:27;;;;;;;9.45;3.97;;;;;;;2.01;100.00;102052.88;5004015;28;20662;-72
2023/02/28 01:50:54;;;;;;;9.73;3.63;;;;;;;1.93;100.00;102084.84;5002325;28;20042;-75
2023/02/28 01:53:27;;;;;;;6.97;2.88;;;;;;;1.92;100.00;102114.78;5002933;28;20046;-72
2023/02/28 01:55:54;;;;;;;6.82;3.95;;;;;;;1.96;100.00;102107.56;4986358;28;20037;-75
2023/02/28 01:58:20;;;;;;;11.55;3.88;;;;;;;1.96;100.00;102108.41;4990437;28;20391;-72
2023/02/28 02:00:46;;;;;;;9.68;3.78;;;;;;;1.95;100.00;102085.63;5002637;28;20065;-72
2023/02/28 02:03:18;;;;;;;8.48;3.28;;;;;;;1.98;100.00;102064.41;5001895;28;20046;-72
2023/02/28 02:05:47;;;;;;;9.32;3.15;;;;;;;2.00;100.00;102038.00;5002326;28;20038;-72
2023/02/28 02:08:23;;;;;;;8.65;3.00;;;;;;;2.03;100.00;102007.06;4989576;28;20026;-73
2023/02/28 02:10:53;;;;;;;9.33;4.13;;;;;;;2.07;100.00;101989.34;4985936;28;20030;-72
2023/02/28 02:13:43;;;;;;;7.45;3.63;;;;;;;2.05;100.00;101967.50;5006615;28;20948;-72
2023/02/28 02:16:37;;;;;;;8.32;3.67;;;;;;;2.06;100.00;101990.25;4988585;28;20125;-72
2023/02/28 02:19:22;;;;;;;8.10;4.15;;;;;;;2.04;100.00;102024.59;4988225;28;20423;-75
2023/02/28 02:22:12;;;;;;;12.05;4.35;;;;;;;1.97;100.00;102069.78;5005053;28;20095;-75
2023/02/28 02:24:56;;;;;;;8.25;3.63;;;;;;;1.97;100.00;102093.47;5006951;28;20088;-72
2023/02/28 02:27:57;;;;;;;10.48;4.07;;;;;;;1.87;100.00;102122.88;4988627;28;20088;-72
2023/02/28 02:30:37;;;;;;;17.15;4.03;;;;;;;1.87;100.00;102150.97;4988396;28;20479;-72
2023/02/28 02:33:30;;;;;;;12.13;4.25;;;;;;;1.81;100.00;102172.34;4986427;28;20065;-72
2023/02/28 02:36:03;;;;;;;8.23;3.78;;;;;;;1.74;100.00;102195.47;5004368;28;20030;-73
2023/02/28 02:38:39;;;;;;;10.68;3.75;;;;;;;1.74;100.00;102223.59;5007484;28;20042;-73
2023/02/28 02:41:33;;;;;;;6.53;3.30;;;;;;;1.75;100.00;102194.53;5005218;28;20525;-74
2023/02/28 02:44:02;;;;;;;7.82;3.67;;;;;;;1.74;100.00;102120.91;4987008;28;20132;-73
2023/02/28 02:46:38;;;;;;;11.30;3.38;;;;;;;1.75;100.00;102043.59;4989028;28;20040;-72
2023/02/28 02:49:05;;;;;;;;;;;;;;;1.78;100.00;102003.94;4988148;28;20030;-74
2023/02/28 02:51:32;;;;;;;13.02;3.65;;;;;;;1.74;100.00;101976.09;4985657;28;19925;-73
2023/02/28 02:54:19;;;;;;;10.30;4.03;;;;;;;1.72;100.00;101991.94;5007025;28;20046;-74
2023/02/28 02:56:47;;;;;;;7.07;3.47;;;;;;;1.69;100.00;102000.84;5005049;28;20113;-72
2023/02/28 02:59:35;;;;;;;11.02;4.13;;;;;;;1.64;100.00;102023.91;5006922;28;20061;-72
2023/02/28 03:02:04;;;;;;;9.23;4.30;;;;;;;1.63;100.00;102068.72;4962290;28;20081;-72
2023/02/28 03:04:39;;;;;;;6.88;4.07;;;;;;;1.51;100.00;102083.31;4981502;28;20047;-72
2023/02/28 03:07:05;;;;;;;15.67;5.00;;;;;;;1.38;100.00;102101.47;4953213;28;20047;-72
2023/02/28 03:09:33;;;;;;;9.20;4.13;;;;;;;1.28;100.00;102137.00;4961891;28;20113;-73
2023/02/28 03:11:59;;;;;;;8.77;4.75;;;;;;;1.13;100.00;102164.00;4962242;28;20126;-73
2023/02/28 03:14:34;;;;;;;9.00;3.72;;;;;;;1.09;100.00;102213.25;4965157;28;20070;-74
2023/02/28 03:17:17;;;;;;;9.05;4.00;;;;;;;1.02;100.00;102252.09;4980662;28;20125;-73
2023/02/28 03:20:08;;;;;;;9.88;4.60;;;;;;;0.92;100.00;102263.09;4979337;28;20157;-72
2023/02/28 03:22:49;;;;;;;7.82;3.90;;;;;;;0.83;100.00;102283.56;4961100;28;20098;-74
2023/02/28 03:25:41;;;;;;;6.43;3.85;;;;;;;0.66;100.00;102291.28;4964581;28;20053;-72
2023/02/28 03:28:36;;;;;;;7.50;3.63;;;;;;;0.57;100.00;102296.91;4964807;28;20082;-72
2023/02/28 03:31:24;;;;;;;17.23;5.75;;;;;;;0.50;100.00;102314.66;4962562;28;20060;-74
2023/02/28 03:34:08;;;;;;;9.77;4.20;;;;;;;0.51;100.00;102345.28;5000031;28;20046;-75
2023/02/28 03:36:45;;;;;;;14.35;5.43;;;;;;;0.39;100.00;102330.84;5003255;28;20064;-72
2023/02/28 03:39:29;;;;;;;9.05;3.80;;;;;;;0.33;100.00;102336.34;4987902;28;20038;-72
2023/02/28 03:42:00;;;;;;;12.68;4.85;;;;;;;0.29;100.00;102354.91;5006263;28;20026;-73
2023/02/28 03:44:42;;;;;;;10.95;4.65;;;;;;;0.18;100.00;102348.25;5006280;28;20041;-72
2023/02/28 03:47:24;;;;;;;18.23;5.03;;;;;;;0.09;100.00;102353.84;5005346;28;20052;-76
2023/02/28 03:49:55;;;;;;;7.93;3.70;;;;;;;0.07;100.00;102365.31;5006004;28;20104;-72
2023/02/28 03:52:25;;;;;;;10.38;5.28;;;;;;;0.02;100.00;102367.25;5004366;28;20038;-72
2023/02/28 03:55:00;;;;;;;8.85;4.50;;;;;;;-0.06;100.00;102363.13;4988533;28;20048;-75
2023/02/28 03:57:53;;;;;;;9.05;4.05;;;;;;;-0.18;100.00;102350.44;5004730;28;20354;-72
2023/02/28 04:00:28;;;;;;;6.05;3.50;;;;;;;-0.24;100.00;102353.28;5004054;28;20030;-73
2023/02/28 04:02:54;;;;;;;8.60;4.22;;;;;;;-0.30;100.00;102359.59;4987996;28;20517;-72
2023/02/28 04:05:20;;;;;;;10.30;4.88;;;;;;;-0.44;100.00;102352.19;5005626;28;20121;-72
2023/02/28 04:07:46;;;;;;;12.00;6.50;;;;;;;-0.49;100.00;102371.66;5005606;28;20365;-72
2023/02/28 04:10:12;;;;;;;11.13;4.97;;;;;;;-0.50;100.00;102381.25;5004272;28;20230;-72
2023/02/28 04:12:38;;;;;;;9.88;4.93;;;;;;;-0.60;100.00;102384.25;5004273;28;20659;-73
2023/02/28 04:15:04;;;;;;;10.82;4.85;;;;;;;-0.71;100.00;102366.22;4986362;28;20033;-72
2023/02/28 04:17:29;;;;;;;8.40;4.40;;;;;;;-0.80;100.00;102366.53;5005416;28;20083;-72
2023/02/28 04:19:57;;;;;;;13.88;6.03;;;;;;;-0.80;100.00;102396.22;5005105;28;20065;-73
2023/02/28 04:22:25;;;;;;;10.85;5.00;;;;;;;-0.88;100.00;102395.63;5005282;28;20033;-75
2023/02/28 04:24:50;;;;;;;12.70;4.47;;;;;;;-0.94;100.00;102393.19;5004772;28;21322;-73
2023/02/28 04:27:16;;;;;;;7.40;4.75;;;;;;;-0.97;100.00;102406.41;5005966;28;20211;-72
2023/02/28 04:29:44;;;;;;;35.55;5.75;;;;;;;-0.98;100.00;102420.44;5005130;28;20493;-72
2023/02/28 04:32:10;;;;;;;11.10;4.65;;;;;;;-0.97;100.00;102435.25;5003725;28;20446;-72
2023/02/28 04:34:35;;;;;;;;;;;;;;;-0.98;100.00;102441.41;5005003;28;20038;-73
2023/02/28 04:37:01;;;;;;;10.45;3.83;;;;;;;-1.02;100.00;102440.63;4987345;28;19916;-74
2023/02/28 04:39:26;;;;;;;8.00;5.60;;;;;;;-1.04;100.00;102449.44;4991081;28;20533;-72
2023/02/28 04:41:52;;;;;;;13.70;5.22;;;;;;;-1.09;100.00;102452.19;5003427;28;20037;-74
2023/02/28 04:44:17;;;;;;;9.90;5.28;;;;;;;-1.11;100.00;102447.00;4990832;28;20414;-75
2023/02/28 04:46:43;;;;;;;7.60;4.05;;;;;;;-1.15;100.00;102442.78;5004583;28;20038;-74
2023/02/28 04:49:12;;;;;;;11.75;5.28;;;;;;;-1.16;100.00;102448.03;4987175;28;20344;-72
2023/02/28 04:51:38;;;;;;;14.52;4.82;;;;;;;-1.17;100.00;102443.69;4986450;28;20044;-73
2023/02/28 04:54:03;;;;;;;12.15;5.40;;;;;;;-1.22;100.00;102445.59;5004829;28;20438;-73
2023/02/28 04:56:29;;;;;;;11.32;4.75;;;;;;;-1.21;100.00;102452.56;5004571;28;20030;-72
2023/02/28 04:58:54;;;;;;;9.73;4.43;;;;;;;-1.22;100.00;102448.22;5004664;28;20065;-72
2023/02/28 05:01:29;;;;;;;13.13;5.55;;;;;;;-1.27;100.00;102441.34;5004132;28;20563;-73
2023/02/28 05:03:58;;;;;;;5.55;3.65;;;;;;;-1.32;100.00;102438.00;5003450;28;20491;-71
2023/02/28 05:06:25;;;;;;;9.88;4.90;;;;;;;-1.31;100.00;102449.38;5004870;28;20423;-74
2023/02/28 05:08:51;;;;;;;11.77;4.70;;;;;;;-1.38;100.00;102443.44;5004181;28;20038;-72
2023/02/28 05:11:21;;;;;;;9.98;5.03;;;;;;;-1.47;100.00;102430.59;4986841;28;20107;-73
2023/02/28 05:13:47;;;;;;;22.35;6.68;;;;;;;-1.55;100.00;102422.94;5004037;28;20065;-73
2023/02/28 05:16:12;;;;;;;9.63;4.75;;;;;;;-1.54;100.00;102431.69;4986394;28;20071;-75
2023/02/28 05:18:38;;;;;;;12.50;5.40;;;;;;;-1.56;100.00;102442.19;4986610;28;20069;-76
2023/02/28 05:21:04;;;;;;;11.88;4.88;;;;;;;-1.58;100.00;102445.75;4984927;28;20039;-75
2023/02/28 05:23:29;;;;;;;13.30;5.18;;;;;;;-1.63;100.00;102443.25;5004541;28;20036;-72
2023/02/28 05:25:55;;;;;;;9.68;5.25;;;;;;;-1.71;100.00;102429.50;4986733;28;20454;-72
2023/02/28 05:28:21;;;;;;;10.38;4.18;;;;;;;-1.78;100.00;102420.97;5004075;28;20037;-72
2023/02/28 05:30:47;;;;;;;11.20;5.30;;;;;;;-1.81;100.00;102422.81;5004049;28;20547;-72
2023/02/28 05:33:12;;;;;;;11.13;4.82;;;;;;;-1.84;100.00;102429.00;5004818;28;20030;-75
2023/02/28 05:35:40;;;;;;;12.35;5.82;;;;;;;-1.88;100.00;102432.59;4986270;28;20511;-74
2023/02/28 05:38:05;;;;;;;11.40;5.38;;;;;;;-1.96;100.00;102429.31;5004973;28;20048;-73
2023/02/28 05:40:30;;;;;;;11.43;5.70;;;;;;;-1.97;100.00;102444.19;5000373;28;20141;-73
2023/02/28 05:42:56;;;;;;;10.45;5.68;;;;;;;-1.94;100.00;102464.19;5004364;28;20454;-71
2023/02/28 05:45:21;;;;;;;10.35;4.80;;;;;;;-1.96;100.00;102477.31;4990144;28;20571;-72
2023/02/28 05:47:46;;;;;;;13.48;5.07;;;;;;;-2.03;100.00;102478.34;5007716;28;20579;-74
2023/02/28 05:50:12;;;;;;;18.13;5.57;;;;;;;-2.03;100.00;102482.75;5008154;28;20041;-73
2023/02/28 05:52:37;;;;;;;14.38;5.70;;;;;;;-2.09;100.00;102469.78;5008037;28;20502;-75
2023/02/28 05:55:03;;;;;;;25.02;7.70;;;;;;;-2.08;100.00;102487.19;5007604;28;20065;-75
2023/02/28 05:57:29;;;;;;;23.50;8.93;;;;;;;-2.17;100.00;102478.69;4993477;28;20042;-73
2023/02/28 05:59:54;;;;;;;63.72;21.20;;;;;;;-2.19;100.00;102483.09;5006450;28;20032;-72
2023/02/28 06:02:19;;;;;;;18.35;7.45;;;;;;;-2.12;100.00;102505.59;5007821;28;20034;-72
2023/02/28 06:04:45;;;;;;;22.38;9.60;;;;;;;-2.11;100.00;102522.16;5007928;28;20479;-74
2023/02/28 06:07:11;;;;;;;21.30;7.75;;;;;;;-2.14;100.00;102533.56;4989941;28;20060;-72
2023/02/28 06:09:37;;;;;;;19.55;8.85;;;;;;;-2.13;100.00;102535.31;5006851;28;20682;-71
2023/02/28 06:12:05;;;;;;;20.33;8.05;;;;;;;-2.15;100.00;102524.00;4988138;28;20034;-73
2023/02/28 06:14:32;;;;;;;17.52;7.97;;;;;;;-2.10;100.00;102533.53;4987185;28;20034;-72
2023/02/28 06:16:59;;;;;;;16.52;7.50;;;;;;;-2.16;100.00;102532.75;4987423;28;20037;-72
2023/02/28 06:19:25;;;;;;;14.88;6.97;;;;;;;-2.15;100.00;102534.47;4993905;28;20062;-72
2023/02/28 06:21:52;;;;;;;14.70;7.38;;;;;;;-2.11;100.00;102543.09;5007634;28;20400;-72
2023/02/28 06:24:19;;;;;;;15.82;7.20;;;;;;;-2.09;100.00;102543.94;5005882;28;20087;-72
2023/02/28 06:26:45;;;;;;;12.27;6.47;;;;;;;-2.09;100.00;102543.06;5006969;28;20390;-72
2023/02/28 06:29:11;;;;;;;12.50;5.30;;;;;;;-2.09;100.00;102543.06;5006312;28;20042;-72
2023/02/28 06:31:36;;;;;;;;;;;;;;;-2.08;100.00;102543.06;5006231;28;20556;-71
2023/02/28 06:34:02;;;;;;;10.18;5.93;;;;;;;-2.12;100.00;102539.63;5007448;28;19944;-73
2023/02/28 06:36:27;;;;;;;17.58;7.50;;;;;;;-2.10;100.00;102539.59;4990046;28;20517;-75
2023/02/28 06:38:54;;;;;;;12.63;5.93;;;;;;;-2.09;100.00;102537.84;4973541;28;20029;-72
2023/02/28 06:41:21;;;;;;;13.68;6.60;;;;;;;-2.10;100.00;102537.00;5005665;28;20038;-73
2023/02/28 06:43:47;;;;;;;15.48;6.78;;;;;;;-2.08;100.00;102539.56;5007448;28;20949;-74
2023/02/28 06:46:13;;;;;;;12.82;6.28;;;;;;;-2.03;100.00;102546.41;4988660;28;20144;-75
2023/02/28 06:48:40;;;;;;;10.95;5.65;;;;;;;-1.99;100.00;102540.22;5006455;28;20045;-71
2023/02/28 06:51:06;;;;;;;;;;;;;;;-1.93;100.00;102550.50;5005484;28;20029;-73
2023/02/28 06:53:33;;;;;;;11.38;5.95;;;;;;;-1.82;100.00;102568.59;4991991;28;19924;-75
2023/02/28 06:55:58;;;;;;;14.68;5.95;;;;;;;-1.67;100.00;102580.44;5007198;28;20117;-73
2023/02/28 06:58:24;;;;;;;10.98;5.28;;;;;;;-1.73;100.00;102573.59;5005889;28;20129;-73
2023/02/28 07:00:53;;;;;;;19.25;5.78;;;;;;;-1.57;100.00;102588.91;5006464;28;20108;-74
2023/02/28 07:03:19;;;;;;;16.55;5.00;;;;;;;-1.31;100.00;102610.06;5005241;28;20111;-74
2023/02/28 07:05:45;;;;;;;;;;;;;;;-0.96;100.00;102633.59;5005455;28;20125;-72
2023/02/28 07:08:10;;;;;;;21.10;5.75;;;;;;;-0.64;100.00;102637.94;5006733;28;20365;-74
2023/02/28 07:10:40;;;;;;;14.23;4.32;;;;;;;-0.40;100.00;102625.88;4988535;28;20314;-74
2023/02/28 07:13:06;;;;;;;13.60;4.97;;;;;;;-0.21;100.00;102602.56;4987097;28;20037;-74
2023/02/28 07:15:32;;;;;;;14.68;6.07;;;;;;;0.03;100.00;102593.06;5003185;28;20033;-71
2023/02/28 07:17:57;;;;;;;15.88;5.35;;;;;;;0.18;100.00;102560.16;5006627;28;20151;-71
2023/02/28 07:20:23;;;;;;;14.43;5.72;;;;;;;0.39;100.00;102548.94;4992114;28;20026;-73
2023/02/28 07:22:55;;;;;;;8.80;4.57;;;;;;;0.65;100.00;102555.06;5006447;28;20034;-74
2023/02/28 07:25:23;;;;;;;8.20;4.05;;;;;;;1.06;100.00;102576.38;4988686;28;20042;-73
2023/02/28 07:27:48;;;;;;;7.32;4.25;;;;;;;0.94;100.00;102500.56;4988693;28;20057;-75
2023/02/28 07:30:14;;;;;;;9.20;4.28;;;;;;;1.23;100.00;102474.00;5004757;28;20042;-74
2023/02/28 07:32:40;;;;;;;12.70;4.88;;;;;;;1.56;100.00;102433.22;4988679;28;20033;-74
2023/02/28 07:35:05;;;;;;;;;;;;;;;2.25;100.00;102438.22;5006134;28;20423;-74
2023/02/28 07:37:36;;;;;;;9.02;4.03;;;;;;;2.78;100.00;102405.91;5001441;28;20382;-73
2023/02/28 07:40:08;;;;;;;9.93;3.55;;;;;;;3.27;100.00;102342.88;4988344;28;20040;-73
2023/02/28 07:42:38;;;;;;;6.78;3.58;;;;;;;3.76;100.00;102257.63;4985416;28;20357;-74
2023/02/28 07:45:04;;;;;;;8.90;4.13;;;;;;;3.58;100.00;102029.69;5005575;28;20033;-73
2023/02/28 07:47:31;;;;;;;9.07;4.15;;;;;;;4.14;100.00;101958.66;4991708;28;20510;-75
2023/02/28 07:49:56;;;;;;;;;;;;;;;4.28;100.00;101754.28;4983482;28;20431;-75
2023/02/28 07:52:23;;;;;;;9.65;4.15;;;;;;;4.78;100.00;101599.38;4976086;28;20364;-75
2023/02/28 07:54:49;;;;;;;8.65;4.75;;;;;;;4.93;100.00;101369.91;4988608;28;20041;-74
2023/02/28 07:57:14;;;;;;;12.60;8.02;;;;;;;4.93;100.00;101179.41;5005941;28;20033;-75
2023/02/28 07:59:40;;;;;;;13.50;5.23;;;;;;;5.45;100.00;101170.13;4988566;28;20038;-73
2023/02/28 08:02:05;;;;;;;8.63;4.15;;;;;;;4.62;100.00;100910.13;4986492;28;20038;-75
2023/02/28 08:04:33;;;;;;;8.37;4.20;;;;;;;4.42;100.00;100892.31;5002820;28;20068;-75
2023/02/28 08:06:59;;;;;;;8.00;3.78;;;;;;;4.02;100.00;100848.66;4988135;28;20037;-75
2023/02/28 08:09:24;;;;;;;9.43;5.03;;;;;;;4.99;100.00;101031.59;5005680;28;20034;-75
2023/02/28 08:11:50;;;;;;;7.35;5.15;;;;;;;5.27;100.00;100923.53;5005532;28;20034;-75
2023/02/28 08:14:15;;;;;;;7.10;4.60;;;;;;;6.15;100.00;100823.56;4988313;28;20037;-75
2023/02/28 08:16:42;;;;;;;9.63;5.20;;;;;;;6.42;100.00;100518.03;5006032;28;20033;-75
2023/02/28 08:19:08;;;;;;;7.57;4.55;;;;;;;6.96;100.00;100447.50;5005680;28;20288;-75
2023/02/28 08:21:33;;;;;;;6.05;3.90;;;;;;;7.41;100.00;100345.78;4988150;28;20479;-75
2023/02/28 08:23:59;;;;;;;8.83;4.17;;;;;;;7.96;97.81;100119.63;5005964;28;20032;-74
2023/02/28 08:26:24;;;;;;;6.23;3.47;;;;;;;7.96;93.97;99864.44;5004507;28;20034;-75
2023/02/28 08:28:50;;;;;;;8.50;4.10;;;;;;;8.43;91.08;99809.72;5006251;28;20437;-75
2023/02/28 08:31:16;;;;;;;7.20;3.90;;;;;;;8.81;88.58;99730.03;4985873;28;20034;-75
2023/02/28 08:33:42;;;;;;;;;;;;;;;9.21;85.18;99539.03;5006389;28;20079;-75
2023/02/28 08:36:08;;;;;;;6.32;3.63;;;;;;;9.45;81.55;99287.50;4988510;28;19957;-73
2023/02/28 08:38:35;;;;;;;10.02;4.28;;;;;;;9.91;77.71;99079.13;5005997;28;20044;-76
2023/02/28 08:41:03;;;;;;;10.00;4.20;;;;;;;10.10;76.19;99120.22;5005857;28;20072;-75
2023/02/28 08:43:28;;;;;;;8.75;3.97;;;;;;;10.23;73.91;98948.75;5006068;28;20037;-75
2023/02/28 08:45:58;;;;;;;9.45;4.30;;;;;;;9.76;72.15;98708.00;4988111;28;20491;-75
2023/02/28 08:48:25;;;;;;;8.18;4.05;;;;;;;9.75;72.71;98914.25;5004668;28;20502;-76
2023/02/28 08:51:21;;;;;;;10.85;4.63;;;;;;;10.33;71.75;99026.56;4987866;28;20052;-76
2023/02/28 08:53:49;;;;;;;14.60;4.30;;;;;;;11.38;70.56;99371.44;4986911;28;20123;-76
2023/02/28 08:56:16;;;;;;;12.45;4.80;;;;;;;10.72;68.01;98707.34;4987460;28;20511;-75
2023/02/28 08:58:42;;;;;;;8.95;4.55;;;;;;;10.81;67.31;98687.38;5005600;28;20374;-74
2023/02/28 09:01:14;;;;;;;13.50;4.40;;;;;;;10.26;65.96;98389.13;5005556;28;20045;-74
2023/02/28 09:03:41;;;;;;;11.70;4.70;;;;;;;10.93;65.44;98624.28;5005352;28;20041;-75
2023/02/28 09:06:08;;;;;;;12.10;5.45;;;;;;;11.40;64.32;98712.88;4981291;28;20034;-73
2023/02/28 09:08:33;;;;;;;7.68;3.88;;;;;;;10.88;63.39;98463.91;5004835;28;20038;-75
2023/02/28 09:10:59;;;;;;;9.10;4.13;;;;;;;11.34;63.21;98662.16;5003795;28;20053;-75
2023/02/28 09:13:26;;;;;;;8.60;3.75;;;;;;;11.23;61.70;98380.56;5004094;28;20021;-74
2023/02/28 09:15:53;;;;;;;10.93;5.38;;;;;;;12.37;60.74;98765.09;5003757;28;20073;-75
2023/02/28 09:18:18;;;;;;;9.55;4.15;;;;;;;11.90;58.98;98296.81;4982812;28;20038;-73
2023/02/28 09:20:44;;;;;;;8.77;4.10;;;;;;;12.36;58.63;98510.06;5004628;28;20482;-74
2023/02/28 09:23:11;;;;;;;11.25;4.47;;;;;;;12.27;57.76;98304.59;5004881;28;20037;-76
2023/02/28 09:25:37;;;;;;;7.30;4.57;;;;;;;12.40;56.32;98170.59;4993657;28;20296;-73
2023/02/28 09:28:04;;;;;;;7.13;3.40;;;;;;;11.28;55.20;97605.34;4985992;28;20045;-75
2023/02/28 09:30:30;;;;;;;4.32;3.13;;;;;;;11.54;56.67;98052.72;5004736;28;20059;-75
2023/02/28 09:32:56;;;;;;;8.65;3.67;;;;;;;12.13;54.91;98080.19;5003682;28;20103;-75
2023/02/28 09:35:23;;;;;;;10.03;4.17;;;;;;;11.98;55.03;98117.31;4992334;28;20962;-73
2023/02/28 09:37:52;;;;;;;11.88;4.85;;;;;;;11.89;55.12;98103.47;5003540;28;20056;-74
2023/02/28 09:40:22;;;;;;;5.85;3.40;;;;;;;11.55;55.44;98094.44;5004831;28;20041;-73
2023/02/28 09:42:51;;;;;;;11.85;4.13;;;;;;;11.15;55.72;97948.28;5005061;28;20038;-74
2023/02/28 09:45:37;;;;;;;10.85;3.85;;;;;;;11.40;55.67;98110.94;5004789;28;20022;-75
2023/02/28 09:48:11;;;;;;;6.82;3.63;;;;;;;11.76;56.16;98496.66;5002946;28;20057;-75
2023/02/28 09:50:45;;;;;;;11.75;3.22;;;;;;;11.43;55.68;98261.97;4984324;28;20113;-76
2023/02/28 09:53:35;;;;;;;7.43;3.47;;;;;;;10.65;55.54;97922.91;5003820;28;20038;-74
2023/02/28 09:56:15;;;;;;;13.00;4.55;;;;;;;11.02;55.92;98255.53;5002737;28;20069;-76
2023/02/28 09:58:55;;;;;;;6.28;3.15;;;;;;;10.77;56.20;98256.47;5003866;28;20045;-75
2023/02/28 10:01:35;;;;;;;8.27;2.85;;;;;;;11.47;55.19;98432.28;5002707;28;20116;-75
2023/02/28 10:04:41;;;;;;;6.35;2.47;;;;;;;11.31;54.34;98181.78;4984779;28;20034;-76
2023/02/28 10:07:19;;;;;;;4.70;2.17;;;;;;;11.54;55.18;98449.03;5000889;28;20488;-75
2023/02/28 10:09:48;;;;;;;3.95;2.30;;;;;;;11.54;54.17;98277.19;5004516;28;20129;-76
2023/02/28 10:12:15;;;;;;;7.53;3.03;;;;;;;11.67;54.47;98361.69;4986049;28;20083;-75
2023/02/28 10:14:45;;;;;;;5.75;1.98;;;;;;;11.26;54.14;98121.06;5002910;28;20042;-75
2023/02/28 10:17:16;;;;;;;4.32;2.72;;;;;;;11.51;53.60;98208.97;5004264;28;20079;-76
2023/02/28 10:19:58;;;;;;;6.70;2.10;;;;;;;12.17;53.53;98521.84;4987069;28;20030;-73
2023/02/28 10:22:35;;;;;;;3.35;1.30;;;;;;;11.87;53.39;98319.50;5002910;28;20129;-76
2023/02/28 10:25:11;;;;;;;5.65;1.88;;;;;;;11.73;53.13;98197.72;4981262;28;20348;-76
2023/02/28 10:27:37;;;;;;;3.38;1.02;;;;;;;11.83;52.55;98128.47;5001676;28;20044;-74
2023/02/28 10:30:02;;;;;;;1.63;0.60;;;;;;;10.94;52.35;97787.66;5004521;28;20033;-74
2023/02/28 10:32:35;;;;;;;1.17;0.50;;;;;;;11.10;54.08;98301.44;5004345;28;20042;-74
2023/02/28 10:35:33;;;;;;;1.15;0.43;;;;;;;12.01;52.77;98451.09;4986507;28;20029;-76
2023/02/28 10:38:09;;;;;;;1.92;0.47;;;;;;;12.60;51.77;98580.53;4893421;29;20191;-76
2023/02/28 10:40:38;;;;;;;2.20;0.68;;;;;;;12.26;50.91;98175.41;4908826;29;20042;-75
2023/02/28 10:43:16;;;;;;;1.40;0.82;;;;;;;12.39;50.49;98212.59;4908969;29;20031;-76
2023/02/28 10:45:55;;;;;;;2.13;0.75;;;;;;;12.17;50.69;98142.84;4908840;29;20140;-74
2023/02/28 10:48:20;;;;;;;1.52;0.70;;;;;;;12.49;51.82;98617.97;4909040;29;20208;-75
2023/02/28 10:50:49;;;;;;;3.33;1.40;;;;;;;11.82;50.41;97862.19;4908819;29;20108;-76
2023/02/28 10:53:17;;;;;;;3.35;1.52;;;;;;;12.14;50.96;98127.28;4908723;29;20047;-75
2023/02/28 10:55:43;;;;;;;2.95;1.10;;;;;;;12.12;51.38;98248.91;4892965;29;20912;-75
2023/02/28 10:58:22;;;;;;;3.42;1.20;;;;;;;12.32;50.91;98273.44;4909049;29;20044;-76
2023/02/28 11:00:48;;;;;;;3.35;1.77;;;;;;;11.46;50.85;97834.84;4892965;29;20044;-75
2023/02/28 11:03:33;;;;;;;3.00;1.23;;;;;;;11.83;51.29;98129.28;4899423;29;20075;-76
2023/02/28 11:06:03;;;;;;;1.87;1.13;;;;;;;11.59;51.33;98088.41;4908610;29;20039;-76
2023/02/28 11:08:29;;;;;;;2.80;1.55;;;;;;;12.61;50.98;98544.69;4893159;29;20048;-75
2023/02/28 11:10:57;;;;;;;4.00;1.90;;;;;;;12.43;51.24;98457.28;4892585;29;20087;-76
2023/02/28 11:13:29;;;;;;;2.53;1.25;;;;;;;12.58;50.42;98323.00;4918138;28;20351;-75
2023/02/28 11:15:58;;;;;;;2.30;1.23;;;;;;;11.79;51.33;98194.94;5007464;28;20034;-76
2023/02/28 11:18:46;;;;;;;3.03;1.10;;;;;;;12.73;50.75;98625.03;5007562;28;20479;-76
2023/02/28 11:21:19;;;;;;;4.70;1.58;;;;;;;12.86;48.99;98262.53;5007541;28;20064;-74
2023/02/28 11:23:45;;;;;;;1.63;1.35;;;;;;;13.41;49.16;98666.66;4988420;28;20034;-76
2023/02/28 11:26:11;;;;;;;1.10;1.00;;;;;;;13.45;48.88;98404.34;4960303;28;20081;-76
2023/02/28 11:28:41;;;;;;;6.95;1.77;;;;;;;12.93;48.29;98082.97;4982751;28;20707;-76
2023/02/28 11:31:13;;;;;;;2.20;1.00;;;;;;;13.15;48.91;98381.22;5006718;28;20870;-76
2023/02/28 11:33:50;;;;;;;3.63;1.38;;;;;;;13.38;48.96;98431.28;5007266;28;20487;-76
2023/02/28 11:36:24;;;;;;;2.78;1.40;;;;;;;13.77;48.63;98568.28;5007006;28;20034;-76